createdAt,value
2018-07-07T12:38:57.244Z,33.20
2018-07-07T12:41:25.374Z,33.00
2018-07-07T12:43:53.743Z,32.10
2018-07-07T12:46:21.880Z,31.50
2018-07-07T12:48:50.035Z,30.60
2018-07-07T12:51:18.167Z,32.00
2018-07-07T12:53:46.265Z,31.10
2018-07-07T12:56:14.397Z,31.60
2018-07-07T12:58:42.529Z,31.30
2018-07-07T19:33:43.936Z,48.80
2018-07-07T19:36:17.592Z,50.40
2018-07-07T19:38:45.734Z,48.10
2018-07-07T19:41:13.959Z,46.20
2018-07-07T19:43:42.108Z,45.50
2018-07-07T19:46:10.295Z,44.60
2018-07-07T19:48:38.487Z,44.60
2018-07-07T19:51:07.496Z,45.10
2018-07-07T19:53:35.676Z,45.90
2018-07-07T19:56:03.812Z,46.30
2018-07-07T19:58:31.943Z,48.60
2018-07-07T20:01:00.102Z,46.70
2018-07-07T20:03:28.203Z,50.90
2018-07-07T20:05:56.368Z,50.70
2018-07-07T20:08:24.922Z,49.10
2018-07-07T20:10:53.036Z,49.50
2018-07-07T20:13:21.287Z,49.50
2018-07-07T20:16:12.769Z,48.60
2018-07-07T20:18:57.675Z,47.50
2018-07-07T20:21:42.609Z,46.90
2018-07-07T20:24:10.962Z,47.30
2018-07-07T20:26:43.305Z,47.10
2018-07-07T20:29:11.541Z,47.60
2018-07-07T20:31:44.917Z,46.90
2018-07-07T20:34:13.063Z,46.40
2018-07-07T20:36:41.423Z,46.60
2018-07-07T20:39:09.680Z,46.40
2018-07-07T20:41:37.776Z,47.30
2018-07-07T20:44:06.198Z,47.60
2018-07-07T20:46:34.581Z,46.20
2018-07-07T20:49:02.906Z,45.80
2018-07-07T20:51:31.048Z,45.80
2018-07-07T20:53:59.232Z,46.10
2018-07-07T20:56:27.489Z,46.10
2018-07-07T20:58:55.763Z,45.90
2018-07-07T21:01:23.968Z,47.20
2018-07-07T21:03:52.315Z,46.30
2018-07-07T21:06:20.427Z,46.70
2018-07-07T21:08:48.754Z,47.30
2018-07-07T21:11:16.967Z,47.50
2018-07-07T21:13:45.216Z,46.90
2018-07-07T21:16:13.391Z,47.00
2018-07-07T21:18:41.564Z,47.20
2018-07-07T21:21:09.830Z,47.20
2018-07-07T21:23:38.070Z,47.20
2018-07-07T21:26:06.144Z,47.10
2018-07-07T21:28:34.482Z,46.70
2018-07-07T21:31:02.652Z,47.40
2018-07-07T21:33:30.943Z,47.50
2018-07-07T21:35:59.227Z,47.80
2018-07-07T21:38:27.428Z,48.10
2018-07-07T21:40:55.627Z,48.10
2018-07-07T21:43:23.852Z,48.60
2018-07-07T21:45:52.026Z,47.70
2018-07-07T21:48:20.204Z,48.60
2018-07-07T21:50:48.809Z,48.30
2018-07-07T21:53:16.992Z,49.20
2018-07-07T21:55:45.335Z,49.10
2018-07-07T21:58:18.759Z,49.60
2018-07-07T22:01:03.952Z,49.70
2018-07-07T22:03:37.440Z,49.50
2018-07-07T22:06:07.025Z,50.00
2018-07-07T22:08:35.952Z,50.00
2018-07-07T22:11:04.502Z,49.80
2018-07-07T22:13:32.764Z,49.80
2018-07-07T22:16:00.935Z,50.30
2018-07-07T22:18:29.089Z,50.50
2018-07-07T22:21:08.797Z,50.60
2018-07-07T22:23:36.932Z,50.60
2018-07-07T22:26:05.024Z,51.00
2018-07-07T22:28:33.423Z,51.20
2018-07-07T22:31:01.556Z,51.30
2018-07-07T22:33:29.691Z,51.70
2018-07-07T22:36:03.144Z,51.50
2018-07-07T22:38:36.550Z,51.40
2018-07-07T22:41:04.717Z,51.70
2018-07-07T22:46:01.145Z,52.10
2018-07-07T22:48:29.668Z,51.40
2018-07-07T22:50:57.863Z,51.30
2018-07-07T22:53:26.210Z,51.80
2018-07-07T22:55:54.316Z,51.80
2018-07-07T22:58:22.467Z,52.20
2018-07-07T23:00:50.596Z,52.00
2018-07-07T23:03:18.743Z,51.90
2018-07-07T23:05:46.896Z,52.10
2018-07-07T23:08:15.105Z,52.50
2018-07-07T23:10:43.172Z,52.10
2018-07-07T23:13:11.335Z,52.30
2018-07-07T23:15:39.444Z,52.90
2018-07-07T23:18:07.595Z,53.00
2018-07-07T23:20:35.799Z,53.20
2018-07-07T23:23:03.931Z,53.50
2018-07-07T23:25:32.063Z,53.50
2018-07-07T23:28:00.196Z,53.70
2018-07-07T23:30:28.349Z,53.60
2018-07-07T23:32:57.238Z,53.90
2018-07-07T23:35:25.403Z,53.90
2018-07-07T23:37:53.524Z,54.10
2018-07-07T23:40:21.707Z,54.00
2018-07-07T23:42:49.806Z,54.40
2018-07-07T23:45:17.972Z,54.00
2018-07-07T23:50:14.046Z,54.40
2018-07-07T23:52:42.209Z,55.10
2018-07-07T23:55:10.376Z,55.10
2018-07-07T23:57:38.516Z,55.30
